ABI298 OOMS-HKJK
Flight info
| Callsign | ABI298 |
|---|---|
| Flight time | 4h 14m |
| Altitude | 32000 |
| Route | IZK B400 RIGAM DCT MAV UP312 WAV WAJI1A |
| Aircraft | B77L/H-SDE1E2E3FGHIJ2J3J4J5M1RWXYZ/LB1D1 |
Departure
| Time | 2026-04-29 07:48 |
|---|---|
| Airport | Muscat International Airport (OOMS) |
Arrival
| Time | 2026-04-29 12:03 |
|---|---|
| Airport | Jomo Kenyatta International Airport (HKJK) |
| Time | Latitude | Longitude | Altitude | Speed | Heading |
|---|---|---|---|---|---|
| 2026-04-29 07:12 | 23.59859 | 58.30153 | 51 ft | 0 kts | 355° |
| 2026-04-29 07:24 | 23.59854 | 58.30154 | 52 ft | 2 kts | 355° |
| 2026-04-29 07:25 | 23.59839 | 58.30155 | 52 ft | 2 kts | 355° |
| 2026-04-29 07:25 | 23.59824 | 58.30156 | 52 ft | 2 kts | 355° |
| 2026-04-29 07:25 | 23.59809 | 58.30158 | 52 ft | 2 kts | 355° |
| 2026-04-29 07:25 | 23.59794 | 58.30159 | 52 ft | 2 kts | 355° |
| 2026-04-29 07:26 | 23.59779 | 58.30161 | 52 ft | 2 kts | 354° |
| 2026-04-29 07:26 | 23.59765 | 58.30164 | 52 ft | 2 kts | 331° |
| 2026-04-29 07:26 | 23.59753 | 58.30174 | 52 ft | 2 kts | 311° |
| 2026-04-29 07:26 | 23.59744 | 58.30187 | 52 ft | 2 kts | 292° |
| 2026-04-29 07:27 | 23.59740 | 58.30203 | 52 ft | 2 kts | 272° |
| 2026-04-29 07:27 | 23.59741 | 58.30219 | 52 ft | 2 kts | 262° |
| 2026-04-29 07:27 | 23.59743 | 58.30235 | 52 ft | 2 kts | 265° |
| 2026-04-29 07:27 | 23.59745 | 58.30251 | 52 ft | 2 kts | 265° |
| 2026-04-29 07:28 | 23.59745 | 58.30257 | 52 ft | 0 kts | 265° |
| 2026-04-29 07:32 | 23.59745 | 58.30232 | 52 ft | 6 kts | 271° |
| 2026-04-29 07:32 | 23.59743 | 58.30159 | 52 ft | 12 kts | 266° |
| 2026-04-29 07:32 | 23.59732 | 58.30045 | 52 ft | 17 kts | 266° |
| 2026-04-29 07:32 | 23.59722 | 58.29890 | 52 ft | 22 kts | 264° |
| 2026-04-29 07:33 | 23.59706 | 58.29701 | 52 ft | 26 kts | 265° |
| 2026-04-29 07:33 | 23.59691 | 58.29510 | 52 ft | 23 kts | 265° |
| 2026-04-29 07:33 | 23.59679 | 58.29342 | 52 ft | 20 kts | 265° |
| 2026-04-29 07:33 | 23.59668 | 58.29196 | 52 ft | 17 kts | 264° |
| 2026-04-29 07:34 | 23.59657 | 58.29072 | 52 ft | 15 kts | 264° |
| 2026-04-29 07:34 | 23.59646 | 58.28957 | 52 ft | 16 kts | 264° |
| 2026-04-29 07:34 | 23.59635 | 58.28821 | 52 ft | 19 kts | 265° |
| 2026-04-29 07:34 | 23.59628 | 58.28715 | 52 ft | 21 kts | 265° |
| 2026-04-29 07:38 | 23.59616 | 58.28574 | 53 ft | 23 kts | 265° |
| 2026-04-29 07:38 | 23.59602 | 58.28391 | 53 ft | 25 kts | 265° |
| 2026-04-29 07:38 | 23.59587 | 58.28194 | 53 ft | 26 kts | 264° |
| 2026-04-29 07:38 | 23.59570 | 58.28006 | 53 ft | 23 kts | 265° |
| 2026-04-29 07:39 | 23.59558 | 58.27843 | 53 ft | 20 kts | 265° |
| 2026-04-29 07:39 | 23.59547 | 58.27702 | 53 ft | 17 kts | 265° |
| 2026-04-29 07:39 | 23.59537 | 58.27584 | 53 ft | 14 kts | 264° |
| 2026-04-29 07:39 | 23.59529 | 58.27484 | 53 ft | 12 kts | 265° |
| 2026-04-29 07:40 | 23.59535 | 58.27404 | 53 ft | 9 kts | 303° |
| 2026-04-29 07:40 | 23.59602 | 58.27373 | 53 ft | 13 kts | 356° |
| 2026-04-29 07:40 | 23.59716 | 58.27363 | 53 ft | 19 kts | 354° |
| 2026-04-29 07:40 | 23.59874 | 58.27346 | 53 ft | 25 kts | 355° |
| 2026-04-29 07:41 | 23.60063 | 58.27329 | 52 ft | 27 kts | 355° |
| 2026-04-29 07:41 | 23.60241 | 58.27313 | 52 ft | 23 kts | 354° |
| 2026-04-29 07:41 | 23.60381 | 58.27299 | 52 ft | 9 kts | 355° |
| 2026-04-29 07:41 | 23.60440 | 58.27304 | 52 ft | 9 kts | 37° |
| 2026-04-29 07:42 | 23.60461 | 58.27404 | 52 ft | 17 kts | 87° |
| 2026-04-29 07:42 | 23.60472 | 58.27564 | 52 ft | 24 kts | 84° |
| 2026-04-29 07:42 | 23.60490 | 58.27777 | 52 ft | 31 kts | 85° |
| 2026-04-29 07:42 | 23.60506 | 58.27984 | 52 ft | 21 kts | 84° |
| 2026-04-29 07:43 | 23.60520 | 58.28167 | 52 ft | 26 kts | 85° |
| 2026-04-29 07:43 | 23.60537 | 58.28383 | 51 ft | 28 kts | 85° |
| 2026-04-29 07:43 | 23.60554 | 58.28583 | 51 ft | 25 kts | 84° |
| 2026-04-29 07:43 | 23.60568 | 58.28763 | 51 ft | 22 kts | 85° |
| 2026-04-29 07:44 | 23.60582 | 58.28949 | 51 ft | 28 kts | 85° |
| 2026-04-29 07:44 | 23.60602 | 58.29169 | 51 ft | 28 kts | 84° |
| 2026-04-29 07:44 | 23.60618 | 58.29374 | 51 ft | 25 kts | 85° |
| 2026-04-29 07:44 | 23.60631 | 58.29553 | 51 ft | 20 kts | 85° |
| 2026-04-29 07:45 | 23.60657 | 58.29616 | 51 ft | 7 kts | 22° |
| 2026-04-29 07:45 | 23.60712 | 58.29617 | 51 ft | 10 kts | 346° |
| 2026-04-29 07:45 | 23.60797 | 58.29599 | 51 ft | 12 kts | 352° |
| 2026-04-29 07:45 | 23.60874 | 58.29587 | 51 ft | 8 kts | 354° |
| 2026-04-29 07:46 | 23.60897 | 58.29579 | 51 ft | 0 kts | 314° |
| 2026-04-29 07:46 | 23.60901 | 58.29571 | 51 ft | 1 kts | 291° |
| 2026-04-29 07:46 | 23.60899 | 58.29549 | 51 ft | 4 kts | 252° |
| 2026-04-29 07:46 | 23.60891 | 58.29510 | 51 ft | 4 kts | 264° |
| 2026-04-29 07:47 | 23.60890 | 58.29509 | 51 ft | 0 kts | 264° |
| 2026-04-29 07:47 | 23.60888 | 58.29482 | 51 ft | 12 kts | 264° |
| 2026-04-29 07:47 | 23.60863 | 58.29174 | 51 ft | 76 kts | 265° |
| 2026-04-29 07:48 | 23.60797 | 58.28341 | 51 ft | 145 kts | 265° |
| 2026-04-29 07:48 | 23.60687 | 58.27004 | 62 ft | 205 kts | 269° |
| 2026-04-29 07:48 | 23.60604 | 58.25408 | 767 ft | 212 kts | 269° |
| 2026-04-29 07:48 | 23.60480 | 58.23826 | 1694 ft | 218 kts | 266° |
| 2026-04-29 07:49 | 23.60320 | 58.22239 | 2502 ft | 211 kts | 267° |
| 2026-04-29 07:49 | 23.60170 | 58.20612 | 2957 ft | 219 kts | 267° |
| 2026-04-29 07:49 | 23.60030 | 58.18945 | 3483 ft | 224 kts | 268° |
| 2026-04-29 07:49 | 23.59898 | 58.17184 | 3688 ft | 248 kts | 268° |
| 2026-04-29 07:50 | 23.59740 | 58.15241 | 4064 ft | 264 kts | 266° |
| 2026-04-29 07:50 | 23.59545 | 58.13214 | 4634 ft | 271 kts | 266° |
| 2026-04-29 07:50 | 23.59357 | 58.11211 | 5404 ft | 269 kts | 266° |
| 2026-04-29 07:50 | 23.59201 | 58.09182 | 6100 ft | 270 kts | 268° |
| 2026-04-29 07:51 | 23.59066 | 58.07154 | 6695 ft | 274 kts | 268° |
| 2026-04-29 07:51 | 23.58888 | 58.05062 | 7259 ft | 280 kts | 260° |
| 2026-04-29 07:51 | 23.58145 | 58.03115 | 7967 ft | 281 kts | 234° |
| 2026-04-29 07:51 | 23.56665 | 58.01728 | 8470 ft | 293 kts | 209° |
| 2026-04-29 07:52 | 23.54665 | 58.01043 | 8872 ft | 308 kts | 189° |
| 2026-04-29 07:52 | 23.52488 | 58.00923 | 9409 ft | 313 kts | 187° |
| 2026-04-29 07:52 | 23.50359 | 58.00572 | 10006 ft | 313 kts | 197° |
| 2026-04-29 07:52 | 23.48255 | 57.99868 | 10440 ft | 321 kts | 202° |
| 2026-04-29 07:53 | 23.46067 | 57.99001 | 10602 ft | 342 kts | 202° |
| 2026-04-29 07:53 | 23.43797 | 57.98083 | 10881 ft | 359 kts | 203° |
| 2026-04-29 07:53 | 23.41430 | 57.97102 | 11446 ft | 366 kts | 202° |
| 2026-04-29 07:53 | 23.38976 | 57.96127 | 11736 ft | 383 kts | 201° |
| 2026-04-29 07:54 | 23.36424 | 57.95130 | 11967 ft | 400 kts | 201° |
| 2026-04-29 07:54 | 23.33802 | 57.94087 | 12768 ft | 399 kts | 202° |
| 2026-04-29 07:54 | 23.31186 | 57.93052 | 13493 ft | 400 kts | 202° |
| 2026-04-29 07:54 | 23.28567 | 57.91996 | 13932 ft | 409 kts | 202° |
| 2026-04-29 07:55 | 23.25883 | 57.90900 | 14628 ft | 411 kts | 202° |
| 2026-04-29 07:55 | 23.23195 | 57.89821 | 15372 ft | 411 kts | 202° |
| 2026-04-29 07:55 | 23.20540 | 57.88731 | 15948 ft | 414 kts | 203° |
| 2026-04-29 07:55 | 23.17831 | 57.87593 | 16478 ft | 418 kts | 202° |
| 2026-04-29 07:56 | 23.15090 | 57.86467 | 17080 ft | 420 kts | 202° |
| 2026-04-29 07:56 | 23.12368 | 57.85372 | 17677 ft | 422 kts | 202° |
| 2026-04-29 07:56 | 23.09586 | 57.84282 | 18288 ft | 424 kts | 201° |
| 2026-04-29 07:56 | 23.06787 | 57.83202 | 18906 ft | 426 kts | 201° |
| 2026-04-29 07:57 | 23.04016 | 57.82132 | 19484 ft | 428 kts | 201° |
| 2026-04-29 07:57 | 23.01190 | 57.81031 | 20025 ft | 431 kts | 202° |
| 2026-04-29 07:57 | 22.98343 | 57.79916 | 20552 ft | 434 kts | 202° |
| 2026-04-29 07:57 | 22.95517 | 57.78805 | 21064 ft | 438 kts | 202° |
| 2026-04-29 07:58 | 22.92632 | 57.77667 | 21579 ft | 441 kts | 202° |
| 2026-04-29 07:58 | 22.89729 | 57.76519 | 22091 ft | 443 kts | 203° |
| 2026-04-29 07:58 | 22.86928 | 57.75195 | 22587 ft | 444 kts | 207° |
| 2026-04-29 07:58 | 22.84120 | 57.73743 | 23085 ft | 447 kts | 207° |
| 2026-04-29 07:59 | 22.81297 | 57.72276 | 23556 ft | 449 kts | 207° |
| 2026-04-29 07:59 | 22.78454 | 57.70800 | 24000 ft | 453 kts | 207° |
| 2026-04-29 07:59 | 22.75604 | 57.69322 | 24451 ft | 455 kts | 207° |
| 2026-04-29 07:59 | 22.72744 | 57.67840 | 24902 ft | 458 kts | 207° |
| 2026-04-29 08:00 | 22.69850 | 57.66341 | 25305 ft | 461 kts | 208° |
| 2026-04-29 08:00 | 22.66930 | 57.64830 | 25690 ft | 465 kts | 208° |
| 2026-04-29 08:00 | 22.64013 | 57.63321 | 26074 ft | 468 kts | 208° |
| 2026-04-29 08:00 | 22.61054 | 57.61791 | 26461 ft | 472 kts | 208° |
| 2026-04-29 08:01 | 22.58110 | 57.60270 | 26837 ft | 475 kts | 208° |
| 2026-04-29 08:01 | 22.55107 | 57.58720 | 27216 ft | 478 kts | 208° |
| 2026-04-29 08:01 | 22.52080 | 57.57158 | 27595 ft | 481 kts | 208° |
| 2026-04-29 08:01 | 22.49076 | 57.55608 | 27965 ft | 484 kts | 208° |
| 2026-04-29 08:02 | 22.46011 | 57.54027 | 28346 ft | 488 kts | 208° |
| 2026-04-29 08:02 | 22.42931 | 57.52440 | 28787 ft | 489 kts | 208° |
| 2026-04-29 08:02 | 22.39895 | 57.50877 | 29318 ft | 487 kts | 208° |
| 2026-04-29 08:02 | 22.36831 | 57.49300 | 29876 ft | 485 kts | 208° |
| 2026-04-29 08:03 | 22.33777 | 57.47728 | 30415 ft | 484 kts | 208° |
| 2026-04-29 08:03 | 22.30718 | 57.46154 | 30778 ft | 485 kts | 208° |
| 2026-04-29 08:03 | 22.27690 | 57.44597 | 31083 ft | 483 kts | 208° |
| 2026-04-29 08:03 | 22.24639 | 57.43028 | 31278 ft | 485 kts | 208° |
| 2026-04-29 08:04 | 22.18572 | 57.39910 | 31293 ft | 482 kts | 208° |
| 2026-04-29 08:04 | 22.12520 | 57.36803 | 31272 ft | 481 kts | 208° |
| 2026-04-29 08:05 | 22.06494 | 57.33713 | 31215 ft | 481 kts | 208° |
| 2026-04-29 08:05 | 22.00423 | 57.30602 | 31216 ft | 482 kts | 208° |
| 2026-04-29 08:06 | 21.97390 | 57.29049 | 31366 ft | 479 kts | 208° |
| 2026-04-29 08:06 | 21.94360 | 57.27499 | 31573 ft | 482 kts | 208° |
| 2026-04-29 08:06 | 21.91360 | 57.25964 | 31777 ft | 481 kts | 208° |
| 2026-04-29 08:06 | 21.88324 | 57.24412 | 31994 ft | 481 kts | 208° |
| 2026-04-29 08:07 | 21.85290 | 57.22861 | 32257 ft | 480 kts | 208° |
| 2026-04-29 08:07 | 21.82278 | 57.21323 | 32295 ft | 485 kts | 208° |
| 2026-04-29 08:07 | 21.79207 | 57.19754 | 32150 ft | 484 kts | 207° |
| 2026-04-29 08:07 | 21.76137 | 57.18189 | 31992 ft | 481 kts | 207° |
| 2026-04-29 08:08 | 21.73136 | 57.16658 | 31810 ft | 479 kts | 207° |
| 2026-04-29 08:08 | 21.70107 | 57.15116 | 31788 ft | 479 kts | 207° |
| 2026-04-29 08:08 | 21.64057 | 57.12042 | 31817 ft | 480 kts | 207° |
| 2026-04-29 08:09 | 21.57983 | 57.08953 | 31823 ft | 481 kts | 207° |
| 2026-04-29 08:09 | 21.51942 | 57.05880 | 31827 ft | 481 kts | 207° |
| 2026-04-29 08:10 | 21.45896 | 57.02806 | 31837 ft | 481 kts | 207° |
| 2026-04-29 08:10 | 21.39810 | 56.99715 | 31834 ft | 481 kts | 207° |
| 2026-04-29 08:11 | 21.33755 | 56.96643 | 31830 ft | 481 kts | 207° |
| 2026-04-29 08:11 | 21.27716 | 56.93581 | 31830 ft | 481 kts | 207° |
| 2026-04-29 08:12 | 21.21636 | 56.90504 | 31831 ft | 481 kts | 207° |
| 2026-04-29 08:12 | 21.15588 | 56.87447 | 31835 ft | 481 kts | 207° |
| 2026-04-29 08:13 | 21.09536 | 56.84390 | 31839 ft | 481 kts | 207° |
| 2026-04-29 08:13 | 21.03445 | 56.81316 | 31843 ft | 481 kts | 207° |
| 2026-04-29 08:14 | 20.97395 | 56.78265 | 31846 ft | 481 kts | 207° |
| 2026-04-29 08:14 | 20.91350 | 56.75220 | 31848 ft | 481 kts | 207° |
| 2026-04-29 08:15 | 20.85248 | 56.72153 | 31854 ft | 481 kts | 207° |
| 2026-04-29 08:15 | 20.79190 | 56.69111 | 31862 ft | 481 kts | 207° |
| 2026-04-29 08:16 | 20.73143 | 56.66077 | 31865 ft | 481 kts | 207° |
| 2026-04-29 08:16 | 20.67045 | 56.63021 | 31866 ft | 481 kts | 207° |
| 2026-04-29 08:17 | 20.60986 | 56.59987 | 31866 ft | 481 kts | 207° |
| 2026-04-29 08:17 | 20.54925 | 56.56954 | 31866 ft | 481 kts | 207° |
| 2026-04-29 08:18 | 20.48817 | 56.53901 | 31868 ft | 481 kts | 207° |
| 2026-04-29 08:18 | 20.42764 | 56.50877 | 31869 ft | 481 kts | 207° |
| 2026-04-29 08:19 | 20.36709 | 56.47855 | 31870 ft | 481 kts | 207° |
| 2026-04-29 08:19 | 20.30603 | 56.44804 | 31869 ft | 481 kts | 207° |
| 2026-04-29 08:20 | 20.24546 | 56.41780 | 31868 ft | 481 kts | 207° |
| 2026-04-29 08:20 | 20.18486 | 56.38757 | 31867 ft | 481 kts | 207° |
| 2026-04-29 08:21 | 20.12387 | 56.35717 | 31856 ft | 481 kts | 207° |
| 2026-04-29 08:21 | 20.06337 | 56.32704 | 31847 ft | 481 kts | 206° |
| 2026-04-29 08:22 | 20.00285 | 56.29693 | 31843 ft | 481 kts | 206° |
| 2026-04-29 08:22 | 19.94241 | 56.26550 | 31841 ft | 480 kts | 211° |
| 2026-04-29 08:23 | 19.88481 | 56.22964 | 31844 ft | 480 kts | 211° |
| 2026-04-29 08:23 | 19.82719 | 56.19397 | 31846 ft | 480 kts | 211° |
| 2026-04-29 08:24 | 19.76906 | 56.15826 | 31847 ft | 480 kts | 211° |
| 2026-04-29 08:24 | 19.71120 | 56.12288 | 31848 ft | 480 kts | 211° |
| 2026-04-29 08:25 | 19.65336 | 56.08761 | 31849 ft | 480 kts | 211° |
| 2026-04-29 08:25 | 19.59514 | 56.05217 | 31850 ft | 480 kts | 211° |
| 2026-04-29 08:26 | 19.53731 | 56.01702 | 31851 ft | 480 kts | 211° |
| 2026-04-29 08:26 | 19.47948 | 55.98190 | 31851 ft | 480 kts | 211° |
| 2026-04-29 08:27 | 19.42122 | 55.94654 | 31855 ft | 479 kts | 211° |
| 2026-04-29 08:27 | 19.36330 | 55.91141 | 31859 ft | 479 kts | 211° |
| 2026-04-29 08:28 | 19.30561 | 55.87645 | 31861 ft | 478 kts | 211° |
| 2026-04-29 08:28 | 19.24753 | 55.84129 | 31861 ft | 478 kts | 211° |
| 2026-04-29 08:29 | 19.18989 | 55.80643 | 31862 ft | 478 kts | 211° |
| 2026-04-29 08:29 | 19.13225 | 55.77161 | 31864 ft | 477 kts | 211° |
| 2026-04-29 08:30 | 19.04562 | 55.71929 | 31868 ft | 477 kts | 211° |
| 2026-04-29 08:31 | 18.98763 | 55.68432 | 31870 ft | 477 kts | 211° |
| 2026-04-29 08:31 | 18.93014 | 55.64969 | 31872 ft | 476 kts | 211° |
| 2026-04-29 08:32 | 18.87233 | 55.61489 | 31875 ft | 476 kts | 211° |
| 2026-04-29 08:32 | 18.81495 | 55.58037 | 31876 ft | 475 kts | 211° |
| 2026-04-29 08:33 | 18.75749 | 55.54583 | 31875 ft | 475 kts | 211° |
| 2026-04-29 08:33 | 18.69982 | 55.51120 | 31874 ft | 474 kts | 211° |
| 2026-04-29 08:34 | 18.64260 | 55.47686 | 31873 ft | 474 kts | 211° |
| 2026-04-29 08:34 | 18.58540 | 55.44256 | 31875 ft | 474 kts | 211° |
| 2026-04-29 08:35 | 18.52780 | 55.40805 | 31877 ft | 473 kts | 211° |
| 2026-04-29 08:35 | 18.47061 | 55.37381 | 31878 ft | 473 kts | 211° |
| 2026-04-29 08:36 | 18.41332 | 55.33954 | 31874 ft | 473 kts | 211° |
| 2026-04-29 08:36 | 18.35566 | 55.30508 | 31847 ft | 473 kts | 211° |
| 2026-04-29 08:37 | 18.29854 | 55.27097 | 31824 ft | 473 kts | 211° |
| 2026-04-29 08:37 | 18.24143 | 55.23690 | 31825 ft | 473 kts | 211° |
| 2026-04-29 08:38 | 18.18392 | 55.20262 | 31833 ft | 473 kts | 211° |
| 2026-04-29 08:38 | 18.12588 | 55.17036 | 31841 ft | 473 kts | 205° |
| 2026-04-29 08:39 | 18.06539 | 55.14310 | 31844 ft | 474 kts | 204° |
| 2026-04-29 08:39 | 18.00437 | 55.11575 | 31849 ft | 473 kts | 204° |
| 2026-04-29 08:40 | 17.94383 | 55.08861 | 31856 ft | 473 kts | 204° |
| 2026-04-29 08:40 | 17.88345 | 55.06154 | 31866 ft | 471 kts | 204° |
| 2026-04-29 08:41 | 17.82285 | 55.03439 | 31873 ft | 471 kts | 204° |
| 2026-04-29 08:41 | 17.76268 | 55.00744 | 31882 ft | 471 kts | 204° |
| 2026-04-29 08:42 | 17.70253 | 54.98052 | 31897 ft | 471 kts | 204° |
| 2026-04-29 08:42 | 17.64196 | 54.95343 | 31917 ft | 471 kts | 204° |
| 2026-04-29 08:43 | 17.58178 | 54.92654 | 31935 ft | 471 kts | 204° |
| 2026-04-29 08:43 | 17.52163 | 54.89967 | 31949 ft | 470 kts | 204° |
| 2026-04-29 08:44 | 17.46106 | 54.87264 | 31967 ft | 470 kts | 204° |
| 2026-04-29 08:44 | 17.40093 | 54.84582 | 31998 ft | 470 kts | 204° |
| 2026-04-29 08:45 | 17.34030 | 54.81881 | 31923 ft | 472 kts | 204° |
| 2026-04-29 08:45 | 17.31031 | 54.80545 | 31737 ft | 473 kts | 204° |
| 2026-04-29 08:45 | 17.28001 | 54.79179 | 31528 ft | 471 kts | 207° |
| 2026-04-29 08:45 | 17.25129 | 54.77499 | 31307 ft | 470 kts | 213° |
| 2026-04-29 08:46 | 17.22396 | 54.75680 | 31151 ft | 468 kts | 213° |
| 2026-04-29 08:46 | 17.19643 | 54.73834 | 31254 ft | 469 kts | 213° |
| 2026-04-29 08:46 | 17.16873 | 54.71975 | 31410 ft | 472 kts | 213° |
| 2026-04-29 08:46 | 17.14134 | 54.70141 | 31588 ft | 471 kts | 213° |
| 2026-04-29 08:47 | 17.12273 | 54.68894 | 31738 ft | 471 kts | 213° |
| 2026-04-29 08:47 | 17.08589 | 54.66428 | 31967 ft | 472 kts | 213° |
| 2026-04-29 08:47 | 17.05841 | 54.64590 | 31968 ft | 472 kts | 213° |
| 2026-04-29 08:48 | 17.00327 | 54.60905 | 31930 ft | 470 kts | 213° |
| 2026-04-29 08:48 | 16.94802 | 54.57215 | 31910 ft | 468 kts | 213° |
| 2026-04-29 08:49 | 16.89325 | 54.53560 | 31874 ft | 468 kts | 213° |
| 2026-04-29 08:49 | 16.83800 | 54.49874 | 31874 ft | 469 kts | 213° |
| 2026-04-29 08:50 | 16.78308 | 54.46212 | 31886 ft | 469 kts | 213° |
| 2026-04-29 08:50 | 16.72816 | 54.42553 | 31887 ft | 468 kts | 213° |
| 2026-04-29 08:51 | 16.67296 | 54.38878 | 31886 ft | 468 kts | 213° |
| 2026-04-29 08:51 | 16.61815 | 54.35231 | 31885 ft | 468 kts | 213° |
| 2026-04-29 08:52 | 16.56333 | 54.31587 | 31888 ft | 468 kts | 212° |
| 2026-04-29 08:52 | 16.50814 | 54.27919 | 31888 ft | 468 kts | 212° |
| 2026-04-29 08:53 | 16.45331 | 54.24279 | 31887 ft | 468 kts | 212° |
| 2026-04-29 08:53 | 16.39845 | 54.20639 | 31887 ft | 468 kts | 212° |
| 2026-04-29 08:54 | 16.34325 | 54.16979 | 31886 ft | 468 kts | 212° |
| 2026-04-29 08:54 | 16.28847 | 54.13349 | 31886 ft | 467 kts | 212° |
| 2026-04-29 08:55 | 16.23371 | 54.09723 | 31886 ft | 467 kts | 212° |
| 2026-04-29 08:55 | 16.17858 | 54.06076 | 31885 ft | 467 kts | 212° |
| 2026-04-29 08:56 | 16.12382 | 54.02455 | 31885 ft | 467 kts | 212° |
| 2026-04-29 08:56 | 16.06903 | 53.98834 | 31886 ft | 467 kts | 212° |
| 2026-04-29 08:57 | 16.01388 | 53.95192 | 31887 ft | 467 kts | 212° |
| 2026-04-29 08:57 | 15.95910 | 53.91577 | 31888 ft | 467 kts | 212° |
| 2026-04-29 08:58 | 15.90428 | 53.87962 | 31888 ft | 467 kts | 212° |
| 2026-04-29 08:58 | 15.84955 | 53.84335 | 31892 ft | 467 kts | 212° |
| 2026-04-29 08:59 | 15.79462 | 53.80658 | 31891 ft | 467 kts | 212° |
| 2026-04-29 08:59 | 15.73979 | 53.76992 | 31891 ft | 467 kts | 212° |
| 2026-04-29 09:00 | 15.68521 | 53.73346 | 31891 ft | 467 kts | 212° |
| 2026-04-29 09:00 | 15.63061 | 53.69701 | 31891 ft | 467 kts | 212° |
| 2026-04-29 09:01 | 15.57563 | 53.66034 | 31890 ft | 468 kts | 212° |
| 2026-04-29 09:01 | 15.52100 | 53.62394 | 31890 ft | 468 kts | 212° |
| 2026-04-29 09:02 | 15.46638 | 53.58756 | 31890 ft | 468 kts | 212° |
| 2026-04-29 09:02 | 15.41121 | 53.55114 | 31890 ft | 468 kts | 211° |
| 2026-04-29 09:03 | 15.35584 | 53.51571 | 31890 ft | 468 kts | 211° |
| 2026-04-29 09:03 | 15.30054 | 53.48032 | 31890 ft | 468 kts | 211° |
| 2026-04-29 09:04 | 15.24487 | 53.44468 | 31890 ft | 468 kts | 211° |
| 2026-04-29 09:04 | 15.18953 | 53.40927 | 31890 ft | 468 kts | 211° |
| 2026-04-29 09:05 | 15.13421 | 53.37387 | 31890 ft | 468 kts | 211° |
| 2026-04-29 09:05 | 15.07852 | 53.33826 | 31891 ft | 468 kts | 211° |
| 2026-04-29 09:06 | 15.02326 | 53.30294 | 31892 ft | 468 kts | 211° |
| 2026-04-29 09:06 | 14.96800 | 53.26763 | 31891 ft | 468 kts | 211° |
| 2026-04-29 09:07 | 14.92187 | 53.23817 | 31891 ft | 468 kts | 211° |
| 2026-04-29 09:07 | 14.85707 | 53.19683 | 31898 ft | 467 kts | 210° |
| 2026-04-29 09:08 | 14.80180 | 53.16158 | 31898 ft | 467 kts | 210° |
| 2026-04-29 09:08 | 14.74611 | 53.12610 | 31896 ft | 468 kts | 210° |
| 2026-04-29 09:09 | 14.69070 | 53.09081 | 31893 ft | 468 kts | 210° |
| 2026-04-29 09:09 | 14.63951 | 53.04901 | 31893 ft | 471 kts | 224° |
| 2026-04-29 09:10 | 14.59460 | 52.99960 | 31893 ft | 471 kts | 225° |
| 2026-04-29 09:10 | 14.54980 | 52.95005 | 31893 ft | 471 kts | 225° |
| 2026-04-29 09:11 | 14.50522 | 52.90079 | 31893 ft | 471 kts | 225° |
| 2026-04-29 09:11 | 14.46801 | 52.85972 | 31892 ft | 471 kts | 225° |
| 2026-04-29 09:12 | 14.42316 | 52.81025 | 31893 ft | 471 kts | 225° |
| 2026-04-29 09:12 | 14.37836 | 52.76086 | 31892 ft | 471 kts | 225° |
| 2026-04-29 09:13 | 14.32632 | 52.70354 | 31892 ft | 471 kts | 225° |
| 2026-04-29 09:13 | 14.28903 | 52.66249 | 31892 ft | 471 kts | 225° |
| 2026-04-29 09:14 | 14.24409 | 52.61306 | 31892 ft | 470 kts | 225° |
| 2026-04-29 09:14 | 14.19187 | 52.55565 | 31891 ft | 470 kts | 225° |
| 2026-04-29 09:15 | 14.15470 | 52.51482 | 31891 ft | 470 kts | 225° |
| 2026-04-29 09:15 | 14.10994 | 52.46567 | 31890 ft | 470 kts | 225° |
| 2026-04-29 09:16 | 14.06532 | 52.41670 | 31890 ft | 469 kts | 224° |
| 2026-04-29 09:16 | 14.01312 | 52.35946 | 31889 ft | 469 kts | 224° |
| 2026-04-29 09:17 | 13.97587 | 52.31865 | 31889 ft | 469 kts | 224° |
| 2026-04-29 09:17 | 13.93110 | 52.26962 | 31889 ft | 469 kts | 224° |
| 2026-04-29 09:18 | 13.88630 | 52.22057 | 31895 ft | 469 kts | 224° |
| 2026-04-29 09:18 | 13.84164 | 52.17171 | 31897 ft | 469 kts | 224° |
| 2026-04-29 09:19 | 13.79684 | 52.12273 | 31897 ft | 469 kts | 224° |
| 2026-04-29 09:19 | 13.75238 | 52.07414 | 31896 ft | 469 kts | 224° |
| 2026-04-29 09:20 | 13.70759 | 52.02523 | 31895 ft | 469 kts | 224° |
| 2026-04-29 09:20 | 13.66283 | 51.97639 | 31894 ft | 469 kts | 224° |
| 2026-04-29 09:21 | 13.61806 | 51.92755 | 31887 ft | 470 kts | 224° |
| 2026-04-29 09:21 | 13.57325 | 51.87871 | 31875 ft | 471 kts | 225° |
| 2026-04-29 09:22 | 13.52803 | 51.82945 | 31871 ft | 472 kts | 225° |
| 2026-04-29 09:22 | 13.48303 | 51.78044 | 31870 ft | 471 kts | 225° |
| 2026-04-29 09:23 | 13.43796 | 51.73140 | 31869 ft | 471 kts | 225° |
| 2026-04-29 09:23 | 13.39292 | 51.68241 | 31867 ft | 472 kts | 225° |
| 2026-04-29 09:24 | 13.34784 | 51.63342 | 31866 ft | 472 kts | 225° |
| 2026-04-29 09:24 | 13.30269 | 51.58438 | 31865 ft | 472 kts | 225° |
| 2026-04-29 09:25 | 13.25782 | 51.53566 | 31864 ft | 472 kts | 225° |
| 2026-04-29 09:25 | 13.21234 | 51.48631 | 31863 ft | 473 kts | 225° |
| 2026-04-29 09:26 | 13.16726 | 51.43744 | 31861 ft | 473 kts | 225° |
| 2026-04-29 09:26 | 13.12201 | 51.38839 | 31860 ft | 474 kts | 225° |
| 2026-04-29 09:27 | 13.07641 | 51.33900 | 31859 ft | 474 kts | 225° |
| 2026-04-29 09:27 | 13.03114 | 51.28999 | 31858 ft | 474 kts | 225° |
| 2026-04-29 09:28 | 12.98587 | 51.24102 | 31856 ft | 475 kts | 225° |
| 2026-04-29 09:28 | 12.94030 | 51.19174 | 31855 ft | 475 kts | 225° |
| 2026-04-29 09:29 | 12.89488 | 51.14267 | 31854 ft | 475 kts | 225° |
| 2026-04-29 09:29 | 12.82656 | 51.06888 | 31856 ft | 475 kts | 225° |
| 2026-04-29 09:30 | 12.78131 | 51.02005 | 31854 ft | 475 kts | 225° |
| 2026-04-29 09:30 | 12.73566 | 50.97081 | 31852 ft | 474 kts | 225° |
| 2026-04-29 09:31 | 12.69041 | 50.92203 | 31850 ft | 474 kts | 225° |
| 2026-04-29 09:31 | 12.64485 | 50.87295 | 31848 ft | 474 kts | 225° |
| 2026-04-29 09:32 | 12.59950 | 50.82412 | 31846 ft | 474 kts | 225° |
| 2026-04-29 09:32 | 12.55380 | 50.77494 | 31845 ft | 474 kts | 225° |
| 2026-04-29 09:33 | 12.50844 | 50.72615 | 31842 ft | 473 kts | 225° |
| 2026-04-29 09:33 | 12.46302 | 50.67733 | 31840 ft | 473 kts | 225° |
| 2026-04-29 09:34 | 12.41792 | 50.62888 | 31838 ft | 472 kts | 225° |
| 2026-04-29 09:34 | 12.37234 | 50.57993 | 31836 ft | 472 kts | 226° |
| 2026-04-29 09:35 | 12.32721 | 50.53149 | 31834 ft | 472 kts | 226° |
| 2026-04-29 09:35 | 12.28201 | 50.48301 | 31833 ft | 471 kts | 226° |
| 2026-04-29 09:36 | 12.23668 | 50.43440 | 31830 ft | 470 kts | 226° |
| 2026-04-29 09:36 | 12.19163 | 50.38612 | 31828 ft | 470 kts | 226° |
| 2026-04-29 09:37 | 12.14658 | 50.33788 | 31828 ft | 470 kts | 225° |
| 2026-04-29 09:37 | 12.10149 | 50.28963 | 31827 ft | 470 kts | 225° |
| 2026-04-29 09:38 | 12.05632 | 50.24130 | 31825 ft | 469 kts | 226° |
| 2026-04-29 09:38 | 12.01131 | 50.19317 | 31823 ft | 468 kts | 226° |
| 2026-04-29 09:39 | 11.96642 | 50.14520 | 31821 ft | 468 kts | 226° |
| 2026-04-29 09:39 | 11.92112 | 50.09681 | 31820 ft | 468 kts | 226° |
| 2026-04-29 09:40 | 11.87613 | 50.04877 | 31826 ft | 468 kts | 226° |
| 2026-04-29 09:40 | 11.83107 | 50.00069 | 31830 ft | 468 kts | 226° |
| 2026-04-29 09:41 | 11.78591 | 49.95253 | 31830 ft | 468 kts | 226° |
| 2026-04-29 09:41 | 11.74104 | 49.90469 | 31828 ft | 468 kts | 226° |
| 2026-04-29 09:42 | 11.69595 | 49.85666 | 31825 ft | 469 kts | 226° |
| 2026-04-29 09:42 | 11.65083 | 49.80860 | 31823 ft | 469 kts | 226° |
| 2026-04-29 09:43 | 11.60564 | 49.76050 | 31821 ft | 470 kts | 226° |
| 2026-04-29 09:43 | 11.56041 | 49.71238 | 31819 ft | 470 kts | 226° |
| 2026-04-29 09:44 | 11.51506 | 49.66415 | 31817 ft | 471 kts | 226° |
| 2026-04-29 09:44 | 11.46938 | 49.61561 | 31826 ft | 471 kts | 226° |
| 2026-04-29 09:45 | 11.42397 | 49.56737 | 31851 ft | 472 kts | 226° |
| 2026-04-29 09:45 | 11.37853 | 49.51912 | 31862 ft | 472 kts | 226° |
| 2026-04-29 09:46 | 11.33308 | 49.47089 | 31862 ft | 473 kts | 226° |
| 2026-04-29 09:46 | 11.28752 | 49.42256 | 31863 ft | 474 kts | 226° |
| 2026-04-29 09:47 | 11.24183 | 49.37412 | 31858 ft | 474 kts | 226° |
| 2026-04-29 09:47 | 11.19597 | 49.32553 | 31862 ft | 475 kts | 226° |
| 2026-04-29 09:48 | 11.15027 | 49.27713 | 31869 ft | 475 kts | 226° |
| 2026-04-29 09:48 | 11.10423 | 49.22839 | 31882 ft | 476 kts | 226° |
| 2026-04-29 09:49 | 11.05839 | 49.17988 | 31866 ft | 477 kts | 226° |
| 2026-04-29 09:49 | 11.01213 | 49.13096 | 31659 ft | 478 kts | 226° |
| 2026-04-29 09:50 | 10.98922 | 49.10674 | 31470 ft | 478 kts | 226° |
| 2026-04-29 09:50 | 10.96632 | 49.08253 | 31391 ft | 476 kts | 226° |
| 2026-04-29 09:50 | 10.91992 | 49.03350 | 31364 ft | 479 kts | 226° |
| 2026-04-29 09:51 | 10.87383 | 48.98483 | 31395 ft | 478 kts | 226° |
| 2026-04-29 09:51 | 10.82756 | 48.93599 | 31557 ft | 480 kts | 226° |
| 2026-04-29 09:52 | 10.78125 | 48.88712 | 31641 ft | 480 kts | 226° |
| 2026-04-29 09:52 | 10.73495 | 48.83828 | 31599 ft | 480 kts | 226° |
| 2026-04-29 09:53 | 10.68848 | 48.78930 | 31525 ft | 479 kts | 226° |
| 2026-04-29 09:53 | 10.64233 | 48.74069 | 31473 ft | 479 kts | 226° |
| 2026-04-29 09:54 | 10.59588 | 48.69178 | 31454 ft | 480 kts | 226° |
| 2026-04-29 09:54 | 10.54954 | 48.64299 | 31433 ft | 481 kts | 226° |
| 2026-04-29 09:55 | 10.50309 | 48.59412 | 31392 ft | 481 kts | 226° |
| 2026-04-29 09:55 | 10.45635 | 48.54496 | 31283 ft | 481 kts | 226° |
| 2026-04-29 09:56 | 10.41002 | 48.49626 | 31201 ft | 482 kts | 226° |
| 2026-04-29 09:56 | 10.36316 | 48.44704 | 31185 ft | 483 kts | 226° |
| 2026-04-29 09:57 | 10.33995 | 48.42265 | 31296 ft | 480 kts | 226° |
| 2026-04-29 09:57 | 10.31656 | 48.39809 | 31490 ft | 482 kts | 226° |
| 2026-04-29 09:57 | 10.29340 | 48.37378 | 31671 ft | 482 kts | 226° |
| 2026-04-29 09:57 | 10.26996 | 48.34918 | 31852 ft | 482 kts | 225° |
| 2026-04-29 09:58 | 10.24672 | 48.32479 | 31957 ft | 483 kts | 225° |
| 2026-04-29 09:58 | 10.22344 | 48.30037 | 31963 ft | 482 kts | 225° |
| 2026-04-29 09:58 | 10.17652 | 48.25116 | 31926 ft | 479 kts | 225° |
| 2026-04-29 09:59 | 10.12997 | 48.20235 | 31774 ft | 480 kts | 225° |
| 2026-04-29 09:59 | 10.08353 | 48.15369 | 31617 ft | 480 kts | 225° |
| 2026-04-29 10:00 | 10.03724 | 48.10521 | 31564 ft | 481 kts | 225° |
| 2026-04-29 10:00 | 9.99063 | 48.05642 | 31566 ft | 481 kts | 225° |
| 2026-04-29 10:01 | 9.94417 | 48.00780 | 31576 ft | 481 kts | 225° |
| 2026-04-29 10:01 | 9.89747 | 47.95895 | 31572 ft | 481 kts | 225° |
| 2026-04-29 10:02 | 9.85084 | 47.91019 | 31574 ft | 481 kts | 225° |
| 2026-04-29 10:02 | 9.80427 | 47.86152 | 31573 ft | 481 kts | 225° |
| 2026-04-29 10:03 | 9.75753 | 47.81269 | 31572 ft | 481 kts | 225° |
| 2026-04-29 10:03 | 9.71076 | 47.76385 | 31569 ft | 481 kts | 225° |
| 2026-04-29 10:04 | 9.66421 | 47.71527 | 31559 ft | 481 kts | 225° |
| 2026-04-29 10:04 | 9.61749 | 47.66653 | 31545 ft | 481 kts | 225° |
| 2026-04-29 10:05 | 9.57062 | 47.61765 | 31532 ft | 482 kts | 225° |
| 2026-04-29 10:05 | 9.52379 | 47.56884 | 31522 ft | 482 kts | 225° |
| 2026-04-29 10:06 | 9.47717 | 47.52026 | 31514 ft | 482 kts | 225° |
| 2026-04-29 10:06 | 9.43047 | 47.47162 | 31513 ft | 482 kts | 225° |
| 2026-04-29 10:07 | 9.38354 | 47.42275 | 31511 ft | 482 kts | 225° |
| 2026-04-29 10:07 | 9.33694 | 47.37425 | 31507 ft | 482 kts | 225° |
| 2026-04-29 10:08 | 9.29000 | 47.32542 | 31501 ft | 483 kts | 225° |
| 2026-04-29 10:08 | 9.24310 | 47.27665 | 31492 ft | 483 kts | 225° |
| 2026-04-29 10:09 | 9.19626 | 47.22797 | 31482 ft | 483 kts | 225° |
| 2026-04-29 10:09 | 9.14902 | 47.17889 | 31477 ft | 484 kts | 225° |
| 2026-04-29 10:10 | 9.10221 | 47.13027 | 31473 ft | 484 kts | 225° |
| 2026-04-29 10:10 | 9.05519 | 47.08146 | 31471 ft | 485 kts | 225° |
| 2026-04-29 10:11 | 9.00783 | 47.03231 | 31470 ft | 485 kts | 225° |
| 2026-04-29 10:11 | 8.96091 | 46.98364 | 31472 ft | 485 kts | 225° |
| 2026-04-29 10:12 | 8.91398 | 46.93498 | 31575 ft | 485 kts | 225° |
| 2026-04-29 10:12 | 8.86676 | 46.88603 | 31718 ft | 484 kts | 225° |
| 2026-04-29 10:13 | 8.81963 | 46.83720 | 31768 ft | 484 kts | 225° |
| 2026-04-29 10:13 | 8.77245 | 46.78832 | 31774 ft | 483 kts | 225° |
| 2026-04-29 10:14 | 8.72547 | 46.73968 | 31777 ft | 483 kts | 225° |
| 2026-04-29 10:14 | 8.67846 | 46.69104 | 31784 ft | 484 kts | 225° |
| 2026-04-29 10:15 | 8.63123 | 46.64218 | 31789 ft | 484 kts | 225° |
| 2026-04-29 10:15 | 8.58431 | 46.59366 | 31792 ft | 484 kts | 225° |
| 2026-04-29 10:16 | 8.53747 | 46.54523 | 31792 ft | 484 kts | 225° |
| 2026-04-29 10:16 | 8.49022 | 46.49640 | 31789 ft | 484 kts | 225° |
| 2026-04-29 10:17 | 8.44327 | 46.44791 | 31783 ft | 484 kts | 225° |
| 2026-04-29 10:17 | 8.39624 | 46.39935 | 31778 ft | 485 kts | 225° |
| 2026-04-29 10:18 | 8.34889 | 46.35048 | 31773 ft | 484 kts | 225° |
| 2026-04-29 10:18 | 8.30183 | 46.30192 | 31769 ft | 484 kts | 225° |
| 2026-04-29 10:19 | 8.25478 | 46.25339 | 31766 ft | 484 kts | 225° |
| 2026-04-29 10:19 | 8.20741 | 46.20454 | 31767 ft | 484 kts | 225° |
| 2026-04-29 10:20 | 8.16020 | 46.15588 | 31772 ft | 485 kts | 225° |
| 2026-04-29 10:20 | 8.11310 | 46.10736 | 31775 ft | 484 kts | 225° |
| 2026-04-29 10:21 | 8.06595 | 46.05879 | 31760 ft | 485 kts | 225° |
| 2026-04-29 10:21 | 8.01880 | 46.01025 | 31739 ft | 484 kts | 225° |
| 2026-04-29 10:22 | 7.97163 | 45.96170 | 31731 ft | 485 kts | 225° |
| 2026-04-29 10:22 | 7.92450 | 45.91320 | 31727 ft | 485 kts | 225° |
| 2026-04-29 10:23 | 7.87734 | 45.86470 | 31725 ft | 485 kts | 225° |
| 2026-04-29 10:23 | 7.83006 | 45.81609 | 31720 ft | 485 kts | 225° |
| 2026-04-29 10:24 | 7.78260 | 45.76732 | 31716 ft | 485 kts | 225° |
| 2026-04-29 10:24 | 7.73534 | 45.71875 | 31713 ft | 485 kts | 225° |
| 2026-04-29 10:25 | 7.68805 | 45.67018 | 31720 ft | 485 kts | 225° |
| 2026-04-29 10:25 | 7.64078 | 45.62165 | 31730 ft | 485 kts | 225° |
| 2026-04-29 10:26 | 7.59354 | 45.57316 | 31780 ft | 485 kts | 225° |
| 2026-04-29 10:26 | 7.54628 | 45.52467 | 31844 ft | 485 kts | 225° |
| 2026-04-29 10:27 | 7.47545 | 45.45202 | 31864 ft | 485 kts | 225° |
| 2026-04-29 10:28 | 7.42829 | 45.40367 | 31860 ft | 485 kts | 225° |
| 2026-04-29 10:28 | 7.38073 | 45.35493 | 31862 ft | 485 kts | 225° |
| 2026-04-29 10:29 | 7.33347 | 45.30651 | 31866 ft | 485 kts | 225° |
| 2026-04-29 10:29 | 7.28620 | 45.25809 | 31877 ft | 485 kts | 225° |
| 2026-04-29 10:30 | 7.23871 | 45.20948 | 31888 ft | 485 kts | 225° |
| 2026-04-29 10:30 | 7.19159 | 45.16124 | 31892 ft | 485 kts | 225° |
| 2026-04-29 10:31 | 7.14420 | 45.11275 | 31895 ft | 485 kts | 224° |
| 2026-04-29 10:31 | 7.09660 | 45.06406 | 31900 ft | 485 kts | 224° |
| 2026-04-29 10:32 | 7.04940 | 45.01579 | 31904 ft | 485 kts | 224° |
| 2026-04-29 10:32 | 7.00218 | 44.96751 | 31908 ft | 485 kts | 224° |
| 2026-04-29 10:33 | 6.95470 | 44.91899 | 31926 ft | 485 kts | 224° |
| 2026-04-29 10:33 | 6.90724 | 44.87049 | 31980 ft | 485 kts | 224° |
| 2026-04-29 10:34 | 6.85997 | 44.82222 | 32021 ft | 485 kts | 224° |
| 2026-04-29 10:34 | 6.81262 | 44.77388 | 32015 ft | 485 kts | 224° |
| 2026-04-29 10:35 | 6.76532 | 44.72559 | 31997 ft | 485 kts | 224° |
| 2026-04-29 10:35 | 6.71785 | 44.67715 | 31989 ft | 485 kts | 224° |
| 2026-04-29 10:36 | 6.67041 | 44.62876 | 31989 ft | 485 kts | 224° |
| 2026-04-29 10:36 | 6.62308 | 44.58049 | 31991 ft | 485 kts | 224° |
| 2026-04-29 10:37 | 6.57569 | 44.53218 | 31994 ft | 485 kts | 224° |
| 2026-04-29 10:37 | 6.52815 | 44.48372 | 31996 ft | 486 kts | 224° |
| 2026-04-29 10:38 | 6.48049 | 44.43515 | 31995 ft | 486 kts | 224° |
| 2026-04-29 10:38 | 6.43309 | 44.38687 | 31990 ft | 486 kts | 224° |
| 2026-04-29 10:39 | 6.38556 | 44.33847 | 31984 ft | 486 kts | 224° |
| 2026-04-29 10:39 | 6.33815 | 44.29019 | 31981 ft | 486 kts | 224° |
| 2026-04-29 10:40 | 6.29071 | 44.24192 | 31981 ft | 486 kts | 224° |
| 2026-04-29 10:40 | 6.24319 | 44.19356 | 31982 ft | 486 kts | 224° |
| 2026-04-29 10:41 | 6.19562 | 44.14517 | 31981 ft | 486 kts | 224° |
| 2026-04-29 10:41 | 6.14781 | 44.09654 | 31981 ft | 487 kts | 224° |
| 2026-04-29 10:42 | 6.10033 | 44.04827 | 31992 ft | 486 kts | 224° |
| 2026-04-29 10:42 | 6.05278 | 43.99994 | 32024 ft | 487 kts | 224° |
| 2026-04-29 10:43 | 6.00514 | 43.95153 | 32048 ft | 487 kts | 224° |
| 2026-04-29 10:43 | 5.95759 | 43.90322 | 32043 ft | 486 kts | 224° |
| 2026-04-29 10:44 | 5.90984 | 43.85473 | 32027 ft | 486 kts | 224° |
| 2026-04-29 10:44 | 5.86224 | 43.80640 | 32016 ft | 486 kts | 224° |
| 2026-04-29 10:45 | 5.81485 | 43.75829 | 32002 ft | 486 kts | 224° |
| 2026-04-29 10:45 | 5.76714 | 43.70988 | 31989 ft | 487 kts | 224° |
| 2026-04-29 10:46 | 5.71957 | 43.66162 | 31986 ft | 486 kts | 224° |
| 2026-04-29 10:46 | 5.67185 | 43.61321 | 31999 ft | 487 kts | 224° |
| 2026-04-29 10:47 | 5.62445 | 43.56514 | 32015 ft | 487 kts | 224° |
| 2026-04-29 10:47 | 5.57662 | 43.51664 | 32028 ft | 486 kts | 224° |
| 2026-04-29 10:48 | 5.52897 | 43.46835 | 32040 ft | 486 kts | 224° |
| 2026-04-29 10:48 | 5.48135 | 43.42010 | 32050 ft | 486 kts | 224° |
| 2026-04-29 10:49 | 5.43390 | 43.37203 | 32048 ft | 486 kts | 224° |
| 2026-04-29 10:49 | 5.38620 | 43.32371 | 32047 ft | 486 kts | 224° |
| 2026-04-29 10:50 | 5.33883 | 43.27575 | 32050 ft | 486 kts | 224° |
| 2026-04-29 10:50 | 5.29093 | 43.22726 | 32056 ft | 486 kts | 224° |
| 2026-04-29 10:51 | 5.24348 | 43.17923 | 32058 ft | 486 kts | 224° |
| 2026-04-29 10:51 | 5.19570 | 43.13088 | 32051 ft | 486 kts | 224° |
| 2026-04-29 10:52 | 5.14835 | 43.08298 | 32041 ft | 486 kts | 224° |
| 2026-04-29 10:52 | 5.10056 | 43.03464 | 32033 ft | 486 kts | 224° |
| 2026-04-29 10:53 | 5.05297 | 42.98651 | 32026 ft | 486 kts | 224° |
| 2026-04-29 10:53 | 5.00534 | 42.93837 | 32020 ft | 486 kts | 224° |
| 2026-04-29 10:54 | 4.95779 | 42.89030 | 32016 ft | 486 kts | 224° |
| 2026-04-29 10:54 | 4.91023 | 42.84224 | 32014 ft | 486 kts | 224° |
| 2026-04-29 10:55 | 4.86262 | 42.79415 | 32015 ft | 486 kts | 224° |
| 2026-04-29 10:55 | 4.81489 | 42.74593 | 32014 ft | 486 kts | 224° |
| 2026-04-29 10:56 | 4.76741 | 42.69797 | 32013 ft | 486 kts | 224° |
| 2026-04-29 10:56 | 4.71963 | 42.64973 | 32017 ft | 486 kts | 224° |
| 2026-04-29 10:57 | 4.67215 | 42.60180 | 32018 ft | 486 kts | 224° |
| 2026-04-29 10:57 | 4.62448 | 42.55369 | 32013 ft | 486 kts | 224° |
| 2026-04-29 10:58 | 4.57683 | 42.50561 | 32009 ft | 485 kts | 224° |
| 2026-04-29 10:58 | 4.52935 | 42.45771 | 32006 ft | 485 kts | 224° |
| 2026-04-29 10:59 | 4.48166 | 42.40961 | 32005 ft | 485 kts | 224° |
| 2026-04-29 10:59 | 4.43409 | 42.36163 | 32002 ft | 485 kts | 224° |
| 2026-04-29 11:00 | 4.38649 | 42.31363 | 32000 ft | 485 kts | 224° |
| 2026-04-29 11:00 | 4.33880 | 42.26556 | 31999 ft | 485 kts | 224° |
| 2026-04-29 11:01 | 4.29114 | 42.21753 | 31999 ft | 485 kts | 224° |
| 2026-04-29 11:01 | 4.24387 | 42.16989 | 31996 ft | 485 kts | 224° |
| 2026-04-29 11:02 | 4.19627 | 42.12194 | 31991 ft | 485 kts | 224° |
| 2026-04-29 11:02 | 4.14855 | 42.07386 | 31987 ft | 485 kts | 224° |
| 2026-04-29 11:03 | 4.10089 | 42.02586 | 31984 ft | 485 kts | 224° |
| 2026-04-29 11:03 | 4.05358 | 41.97822 | 31982 ft | 485 kts | 224° |
| 2026-04-29 11:04 | 4.00572 | 41.93005 | 31984 ft | 485 kts | 224° |
| 2026-04-29 11:04 | 3.95846 | 41.88247 | 31986 ft | 485 kts | 224° |
| 2026-04-29 11:05 | 3.90770 | 41.83766 | 31991 ft | 484 kts | 218° |
| 2026-04-29 11:05 | 3.85576 | 41.79505 | 31997 ft | 484 kts | 218° |
| 2026-04-29 11:06 | 3.80342 | 41.75217 | 32001 ft | 484 kts | 218° |
| 2026-04-29 11:06 | 3.75130 | 41.70949 | 32005 ft | 484 kts | 218° |
| 2026-04-29 11:07 | 3.69918 | 41.66683 | 32011 ft | 484 kts | 218° |
| 2026-04-29 11:07 | 3.64725 | 41.62434 | 32018 ft | 483 kts | 218° |
| 2026-04-29 11:08 | 3.59519 | 41.58175 | 32023 ft | 484 kts | 218° |
| 2026-04-29 11:08 | 3.54288 | 41.53897 | 32025 ft | 484 kts | 218° |
| 2026-04-29 11:09 | 3.49069 | 41.49628 | 32023 ft | 484 kts | 218° |
| 2026-04-29 11:09 | 3.43858 | 41.45367 | 32026 ft | 484 kts | 218° |
| 2026-04-29 11:10 | 3.38639 | 41.41100 | 32030 ft | 484 kts | 218° |
| 2026-04-29 11:10 | 3.33414 | 41.36830 | 32032 ft | 484 kts | 218° |
| 2026-04-29 11:11 | 3.28197 | 41.32566 | 32031 ft | 484 kts | 218° |
| 2026-04-29 11:11 | 3.22984 | 41.28305 | 32030 ft | 484 kts | 218° |
| 2026-04-29 11:12 | 3.17761 | 41.24038 | 32024 ft | 484 kts | 218° |
| 2026-04-29 11:12 | 3.12533 | 41.19767 | 32025 ft | 484 kts | 218° |
| 2026-04-29 11:13 | 3.07298 | 41.15491 | 32020 ft | 484 kts | 219° |
| 2026-04-29 11:13 | 3.02073 | 41.11224 | 32003 ft | 485 kts | 219° |
| 2026-04-29 11:14 | 2.96850 | 41.06958 | 31987 ft | 485 kts | 219° |
| 2026-04-29 11:14 | 2.91621 | 41.02689 | 31987 ft | 485 kts | 219° |
| 2026-04-29 11:15 | 2.86382 | 40.98412 | 31992 ft | 485 kts | 219° |
| 2026-04-29 11:15 | 2.81163 | 40.94150 | 31994 ft | 485 kts | 219° |
| 2026-04-29 11:16 | 2.75937 | 40.89885 | 31995 ft | 485 kts | 219° |
| 2026-04-29 11:16 | 2.70700 | 40.85611 | 31995 ft | 485 kts | 219° |
| 2026-04-29 11:17 | 2.65457 | 40.81332 | 31994 ft | 485 kts | 219° |
| 2026-04-29 11:17 | 2.60259 | 40.77090 | 31993 ft | 485 kts | 219° |
| 2026-04-29 11:18 | 2.55027 | 40.72823 | 31990 ft | 484 kts | 219° |
| 2026-04-29 11:18 | 2.49788 | 40.68549 | 31990 ft | 484 kts | 219° |
| 2026-04-29 11:19 | 2.44564 | 40.64287 | 31991 ft | 484 kts | 219° |
| 2026-04-29 11:19 | 2.39338 | 40.60025 | 31993 ft | 484 kts | 219° |
| 2026-04-29 11:20 | 2.34074 | 40.55801 | 31992 ft | 484 kts | 218° |
| 2026-04-29 11:20 | 2.28819 | 40.51595 | 31987 ft | 484 kts | 218° |
| 2026-04-29 11:21 | 2.23557 | 40.47382 | 31981 ft | 484 kts | 218° |
| 2026-04-29 11:21 | 2.18292 | 40.43165 | 31973 ft | 483 kts | 218° |
| 2026-04-29 11:22 | 2.13061 | 40.38976 | 31967 ft | 483 kts | 218° |
| 2026-04-29 11:22 | 2.07795 | 40.34758 | 31964 ft | 483 kts | 218° |
| 2026-04-29 11:23 | 2.02558 | 40.30564 | 31961 ft | 483 kts | 218° |
| 2026-04-29 11:23 | 1.97296 | 40.26349 | 31956 ft | 483 kts | 218° |
| 2026-04-29 11:24 | 1.92048 | 40.22147 | 31952 ft | 483 kts | 218° |
| 2026-04-29 11:24 | 1.86825 | 40.17965 | 31949 ft | 483 kts | 218° |
| 2026-04-29 11:25 | 1.81547 | 40.13739 | 31945 ft | 483 kts | 218° |
| 2026-04-29 11:25 | 1.76298 | 40.09536 | 31943 ft | 483 kts | 218° |
| 2026-04-29 11:26 | 1.68924 | 40.02679 | 31941 ft | 483 kts | 224° |
| 2026-04-29 11:26 | 1.64097 | 39.97994 | 31942 ft | 483 kts | 224° |
| 2026-04-29 11:27 | 1.59273 | 39.93315 | 31941 ft | 483 kts | 224° |
| 2026-04-29 11:27 | 1.54446 | 39.88635 | 31940 ft | 483 kts | 224° |
| 2026-04-29 11:28 | 1.49609 | 39.83947 | 31940 ft | 483 kts | 224° |
| 2026-04-29 11:28 | 1.44792 | 39.79281 | 31940 ft | 484 kts | 224° |
| 2026-04-29 11:29 | 1.39948 | 39.74587 | 31942 ft | 484 kts | 224° |
| 2026-04-29 11:29 | 1.35112 | 39.69902 | 31945 ft | 484 kts | 224° |
| 2026-04-29 11:30 | 1.30276 | 39.65218 | 31948 ft | 484 kts | 224° |
| 2026-04-29 11:30 | 1.25454 | 39.60547 | 31952 ft | 484 kts | 224° |
| 2026-04-29 11:31 | 1.20660 | 39.55904 | 31955 ft | 484 kts | 224° |
| 2026-04-29 11:31 | 1.15773 | 39.51171 | 31954 ft | 484 kts | 224° |
| 2026-04-29 11:32 | 1.10932 | 39.46483 | 31972 ft | 484 kts | 224° |
| 2026-04-29 11:32 | 1.06087 | 39.41790 | 31995 ft | 484 kts | 223° |
| 2026-04-29 11:33 | 1.01253 | 39.37109 | 31997 ft | 484 kts | 223° |
| 2026-04-29 11:33 | 0.96434 | 39.32443 | 31994 ft | 484 kts | 223° |
| 2026-04-29 11:34 | 0.91591 | 39.27754 | 31994 ft | 484 kts | 223° |
| 2026-04-29 11:34 | 0.86735 | 39.23052 | 31998 ft | 484 kts | 223° |
| 2026-04-29 11:35 | 0.81922 | 39.18392 | 32002 ft | 484 kts | 223° |
| 2026-04-29 11:35 | 0.77152 | 39.13773 | 32006 ft | 484 kts | 223° |
| 2026-04-29 11:36 | 0.72291 | 39.09067 | 32022 ft | 484 kts | 223° |
| 2026-04-29 11:36 | 0.67464 | 39.04394 | 32042 ft | 484 kts | 223° |
| 2026-04-29 11:37 | 0.62635 | 38.99718 | 32058 ft | 484 kts | 223° |
| 2026-04-29 11:37 | 0.57778 | 38.95017 | 32072 ft | 484 kts | 223° |
| 2026-04-29 11:38 | 0.52954 | 38.90348 | 32077 ft | 484 kts | 223° |
| 2026-04-29 11:38 | 0.48096 | 38.85645 | 32081 ft | 484 kts | 223° |
| 2026-04-29 11:39 | 0.43271 | 38.80976 | 32087 ft | 484 kts | 223° |
| 2026-04-29 11:39 | 0.38447 | 38.76306 | 32095 ft | 484 kts | 223° |
| 2026-04-29 11:40 | 0.33590 | 38.71605 | 32093 ft | 484 kts | 223° |
| 2026-04-29 11:40 | 0.28767 | 38.66936 | 32084 ft | 484 kts | 223° |
| 2026-04-29 11:41 | 0.23940 | 38.62264 | 32002 ft | 484 kts | 223° |
| 2026-04-29 11:41 | 0.19080 | 38.57560 | 31894 ft | 484 kts | 223° |
| 2026-04-29 11:42 | 0.14252 | 38.52886 | 31794 ft | 485 kts | 223° |
| 2026-04-29 11:42 | 0.09419 | 38.48209 | 31702 ft | 485 kts | 223° |
| 2026-04-29 11:43 | 0.04552 | 38.43499 | 31693 ft | 485 kts | 223° |
| 2026-04-29 11:43 | -0.00282 | 38.38819 | 31706 ft | 485 kts | 223° |
| 2026-04-29 11:44 | -0.05118 | 38.34139 | 31724 ft | 485 kts | 223° |
| 2026-04-29 11:44 | -0.09984 | 38.29429 | 31740 ft | 485 kts | 223° |
| 2026-04-29 11:45 | -0.14804 | 38.24764 | 31762 ft | 485 kts | 223° |
| 2026-04-29 11:45 | -0.19672 | 38.20051 | 31781 ft | 485 kts | 223° |
| 2026-04-29 11:46 | -0.24511 | 38.15367 | 31835 ft | 484 kts | 223° |
| 2026-04-29 11:46 | -0.29375 | 38.10659 | 31902 ft | 484 kts | 223° |
| 2026-04-29 11:47 | -0.34216 | 38.05973 | 31984 ft | 484 kts | 223° |
| 2026-04-29 11:47 | -0.39047 | 38.01298 | 32073 ft | 484 kts | 223° |
| 2026-04-29 11:48 | -0.43867 | 37.96632 | 31864 ft | 474 kts | 223° |
| 2026-04-29 11:48 | -0.46176 | 37.94331 | 31378 ft | 473 kts | 226° |
| 2026-04-29 11:48 | -0.48374 | 37.91876 | 30558 ft | 470 kts | 227° |
| 2026-04-29 11:49 | -0.50502 | 37.89461 | 29679 ft | 467 kts | 227° |
| 2026-04-29 11:49 | -0.52655 | 37.87015 | 28645 ft | 468 kts | 227° |
| 2026-04-29 11:49 | -0.54803 | 37.84576 | 27718 ft | 466 kts | 227° |
| 2026-04-29 11:49 | -0.56904 | 37.82190 | 26865 ft | 459 kts | 227° |
| 2026-04-29 11:50 | -0.59002 | 37.79806 | 25959 ft | 452 kts | 227° |
| 2026-04-29 11:50 | -0.61065 | 37.77462 | 25043 ft | 445 kts | 227° |
| 2026-04-29 11:50 | -0.63072 | 37.75182 | 24127 ft | 439 kts | 227° |
| 2026-04-29 11:50 | -0.65080 | 37.72900 | 23228 ft | 433 kts | 227° |
| 2026-04-29 11:51 | -0.67061 | 37.70650 | 22380 ft | 427 kts | 227° |
| 2026-04-29 11:51 | -0.68987 | 37.68463 | 21556 ft | 421 kts | 227° |
| 2026-04-29 11:51 | -0.70912 | 37.66275 | 20725 ft | 415 kts | 227° |
| 2026-04-29 11:51 | -0.72810 | 37.64119 | 19912 ft | 409 kts | 227° |
| 2026-04-29 11:52 | -0.74660 | 37.62018 | 19171 ft | 406 kts | 228° |
| 2026-04-29 11:52 | -0.76526 | 37.59899 | 18635 ft | 403 kts | 228° |
| 2026-04-29 11:52 | -0.78379 | 37.57794 | 18139 ft | 400 kts | 228° |
| 2026-04-29 11:52 | -0.80197 | 37.55729 | 17655 ft | 397 kts | 228° |
| 2026-04-29 11:53 | -0.82024 | 37.53653 | 17165 ft | 395 kts | 228° |
| 2026-04-29 11:53 | -0.83843 | 37.51579 | 16664 ft | 393 kts | 229° |
| 2026-04-29 11:53 | -0.85630 | 37.49558 | 16167 ft | 391 kts | 228° |
| 2026-04-29 11:53 | -0.87427 | 37.47513 | 15666 ft | 389 kts | 229° |
| 2026-04-29 11:54 | -0.89212 | 37.45475 | 15165 ft | 387 kts | 229° |
| 2026-04-29 11:54 | -0.90972 | 37.43480 | 14672 ft | 386 kts | 229° |
| 2026-04-29 11:54 | -0.92741 | 37.41462 | 14176 ft | 384 kts | 229° |
| 2026-04-29 11:54 | -0.94508 | 37.39456 | 13675 ft | 382 kts | 229° |
| 2026-04-29 11:55 | -0.96241 | 37.37481 | 13188 ft | 380 kts | 228° |
| 2026-04-29 11:55 | -0.97994 | 37.35492 | 12696 ft | 379 kts | 229° |
| 2026-04-29 11:55 | -0.99741 | 37.33510 | 12203 ft | 377 kts | 229° |
| 2026-04-29 11:55 | -1.01459 | 37.31560 | 11623 ft | 379 kts | 229° |
| 2026-04-29 11:56 | -1.03210 | 37.29573 | 11033 ft | 380 kts | 229° |
| 2026-04-29 11:56 | -1.04951 | 37.27597 | 10703 ft | 372 kts | 228° |
| 2026-04-29 11:56 | -1.06612 | 37.25711 | 10621 ft | 358 kts | 228° |
| 2026-04-29 11:56 | -1.08235 | 37.23869 | 10508 ft | 345 kts | 228° |
| 2026-04-29 11:57 | -1.09801 | 37.22091 | 10384 ft | 334 kts | 228° |
| 2026-04-29 11:57 | -1.11308 | 37.20380 | 10258 ft | 323 kts | 228° |
| 2026-04-29 11:57 | -1.12776 | 37.18715 | 10129 ft | 313 kts | 228° |
| 2026-04-29 11:57 | -1.14170 | 37.17056 | 9839 ft | 310 kts | 232° |
| 2026-04-29 11:58 | -1.15442 | 37.15336 | 9416 ft | 312 kts | 233° |
| 2026-04-29 11:58 | -1.16713 | 37.13582 | 9121 ft | 307 kts | 233° |
| 2026-04-29 11:58 | -1.17949 | 37.11884 | 9055 ft | 293 kts | 233° |
| 2026-04-29 11:58 | -1.19124 | 37.10267 | 9070 ft | 285 kts | 233° |
| 2026-04-29 11:59 | -1.20269 | 37.08705 | 8994 ft | 275 kts | 233° |
| 2026-04-29 11:59 | -1.21369 | 37.07200 | 8822 ft | 258 kts | 233° |
| 2026-04-29 11:59 | -1.22396 | 37.05801 | 8705 ft | 240 kts | 233° |
| 2026-04-29 11:59 | -1.23345 | 37.04497 | 8182 ft | 232 kts | 233° |
| 2026-04-29 12:00 | -1.24280 | 37.03207 | 7680 ft | 226 kts | 232° |
| 2026-04-29 12:00 | -1.25210 | 37.01950 | 7120 ft | 224 kts | 232° |
| 2026-04-29 12:00 | -1.26114 | 37.00722 | 6712 ft | 216 kts | 233° |
| 2026-04-29 12:00 | -1.26979 | 36.99540 | 6457 ft | 203 kts | 232° |
| 2026-04-29 12:01 | -1.27790 | 36.98432 | 6212 ft | 191 kts | 233° |
| 2026-04-29 12:01 | -1.28533 | 36.97410 | 5995 ft | 175 kts | 232° |
| 2026-04-29 12:01 | -1.29243 | 36.96444 | 5762 ft | 169 kts | 232° |
| 2026-04-29 12:01 | -1.29940 | 36.95496 | 5534 ft | 168 kts | 232° |
| 2026-04-29 12:02 | -1.30623 | 36.94572 | 5350 ft | 165 kts | 232° |
| 2026-04-29 12:02 | -1.31249 | 36.93711 | 5339 ft | 138 kts | 233° |
| 2026-04-29 12:02 | -1.31777 | 36.92986 | 5340 ft | 119 kts | 233° |
| 2026-04-29 12:02 | -1.32230 | 36.92361 | 5341 ft | 105 kts | 233° |
| 2026-04-29 12:03 | -1.32430 | 36.92087 | 5342 ft | 16 kts | 234° |
| 2026-04-29 12:03 | -1.32436 | 36.92079 | 5342 ft | 0 kts | 234° |
| 2026-04-29 12:03 | -1.32437 | 36.92078 | 5342 ft | 1 kts | 234° |
| 2026-04-29 12:03 | -1.32463 | 36.92041 | 5342 ft | 10 kts | 234° |
| 2026-04-29 12:04 | -1.32525 | 36.91955 | 5342 ft | 18 kts | 234° |
| 2026-04-29 12:04 | -1.32589 | 36.91866 | 5342 ft | 11 kts | 234° |
| 2026-04-29 12:04 | -1.32631 | 36.91808 | 5342 ft | 9 kts | 234° |
| 2026-04-29 12:04 | -1.32668 | 36.91758 | 5342 ft | 8 kts | 234° |
| 2026-04-29 12:05 | -1.32698 | 36.91717 | 5342 ft | 7 kts | 234° |
| 2026-04-29 12:05 | -1.32742 | 36.91677 | 5342 ft | 10 kts | 199° |
| 2026-04-29 12:05 | -1.32819 | 36.91693 | 5342 ft | 12 kts | 148° |
| 2026-04-29 12:05 | -1.32882 | 36.91738 | 5342 ft | 10 kts | 145° |
| 2026-04-29 12:06 | -1.32936 | 36.91775 | 5342 ft | 8 kts | 146° |
| 2026-04-29 12:06 | -1.32980 | 36.91804 | 5342 ft | 6 kts | 146° |
| 2026-04-29 12:06 | -1.33013 | 36.91814 | 5342 ft | 4 kts | 202° |
| 2026-04-29 12:06 | -1.33046 | 36.91794 | 5342 ft | 7 kts | 219° |
| 2026-04-29 12:07 | -1.33089 | 36.91742 | 5342 ft | 11 kts | 236° |
| 2026-04-29 12:07 | -1.33146 | 36.91670 | 5342 ft | 14 kts | 224° |
| 2026-04-29 12:07 | -1.33222 | 36.91608 | 5342 ft | 12 kts | 225° |
| 2026-04-29 12:07 | -1.33263 | 36.91556 | 5343 ft | 5 kts | 236° |
| 2026-04-29 12:08 | -1.33282 | 36.91527 | 5343 ft | 6 kts | 236° |
| 2026-04-29 12:08 | -1.33314 | 36.91482 | 5343 ft | 8 kts | 225° |
| 2026-04-29 12:08 | -1.33375 | 36.91486 | 5343 ft | 8 kts | 150° |
| 2026-04-29 12:08 | -1.33409 | 36.91510 | 5343 ft | 2 kts | 143° |
| 2026-04-29 12:09 | -1.33411 | 36.91512 | 5343 ft | 0 kts | 143° |